Airfield :
LOGIN :

Register | Disclaimer

   EN    FR    IT 

 










Legend :    VFR   Marginal VFR   IFR   Intensive IFR   Very Intensive IFR
Visi :
Ceiling :
>= 8 km
>= 3000ft
5 to 8 km
1000 to 3000 ft
1500m to 5 km
500 to 1000 ft
800 to 1500m
200 to 500 ft
< 800m
< 200 ft
Symbols :   Thunderstorms  Fog  Heavy snow  Heavy precipitations  Wind > 20 kt
SIGMETs :     Misc.  Thunderstorms  Icing  Turbulence  Mountain Waves  Volcanic Ashes







- Airport Elevation : 228 ft
- IATA code : OPO


LPPR - Porto Fr. Sa Carneiro

CURRENT METAR :
  • 181700Z 36011KT 9999 FEW025 23/15 Q1011

EXPIRED METARs :
  • 181630Z 01011KT 9999 FEW025 23/15 Q1011
  • 181600Z 36011KT 9999 FEW025 24/14 Q1011
  • 181530Z 34008G19KT 310V040 9999 FEW025 24/14 Q1011
  • 181500Z 35011KT 9999 FEW025 23/14 Q1011
  • 181430Z 36010KT 9999 FEW025 23/15 Q1011

TAF TAF LPPR
Valid from the 18 at 18:00 until the 19 at 18:00 UTC


181700Z 1818/1918 35010KT CAVOK
BECMG 1818/1821 VRB03KT
BECMG 1900/1903 06008KT
BECMG 1910/1912 32010KT
No reported NOTAMs for that airfield.
3 SIGMETs reported for the Lisboa FIR (LPPC) :
 
Embedded thunderstorms
LPPC SIGMET 5 VALID 181735/182135 LPPT
LPPC LISBON FIR EMBD TS OBS E OF LINE N3740 W00800 - N3900 W00755 - N3950 W00835 TOP FL320 MOV SW 25KT NC=
SIGMET 3  cancelation
LPPC SIGMET 4 VALID 181725/181805 LPPT
LPPC LISBON FIR CNL SIGMET 3 181405/181805=
SIGMET 3  CANCELED :
Embedded thunderstorms
LPPC SIGMET 3 VALID 181405/181805 LPPT
LPPC LISBON FIR EMBD TS FCST S OF N3645 AND E OF W01000 TOP FL300 MOV SE 20KT NC=



MET'MAP, your aeronautical weather chart ! - Copyright ORBIFLY December 2007 - Disclaimer

ORBIFLY MET'MAP TEAM :

Programming & Development : Alexandra Zaïnal
Concept & Development : Baudouin d'Aumeries
Co-Development & Prog : Marc-Olivier Méhu
Technical & hardware support : Manuel Goepfert

Contact : metmap@orbifly.com




SOURCES & CREDITS :

   NOAA